Isola, MS (38754)

1:34 AM CDT on March 25, 2017 (GMT -0500)
Southside Corner | | Change Station
Active Advisory: Severe Thunderstorm Watch

Elev 121 ft 33.44 °N, 90.65 °W | Updated 13 minutes ago

Overcast
Overcast
70.5 °F
Feels Like 72 °F
N
5.0
Wind Variable Wind from South
Gusts 12.0 mph

Today
High -- | Low -- °F
--% Chance of Precip.
Yesterday
High -- | Low -- °F
Precip. -- in
Pressure 29.99 in
Visibility 9.0 miles
Clouds Mostly Cloudy 3300 ft
Heat Index 72 °F
Dew Point 63 °F
Humidity 77%
Rainfall 0.00 in
Snow Depth Not available.
6:59 AM 7:17 PM
Waning Crescent, 10% visible
METAR KGLH 250553Z AUTO 17016G23KT 9SM BKN033 22/16 A2997 RMK AO2 SLP154 T02170156 10256 20211 402610178 53005
Pressure 29.99 in
Visibility 9.0 miles
Clouds Mostly Cloudy 3300 ft
Heat Index 72 °F
Dew Point 63 °F
Humidity 77%
Rainfall 0.00 in
Snow Depth Not available.
6:59 AM 7:17 PM
Waning Crescent, 10% visible
METAR KGLH 250553Z AUTO 17016G23KT 9SM BKN033 22/16 A2997 RMK AO2 SLP154 T02170156 10256 20211 402610178 53005

Get Your Daily Forecast Email!

Thanks for signing up!

Be on the lookout for a verification email in your inbox.

You'll start receiving severe weather alerts in your inbox..

×

10-Day Weather Forecast

Almanac

Astronomy

Mar. 25, 2017 Rise Set
Actual Time
Civil Twilight
Nautical Twilight
Astronomical Twilight
Moon
Length of Visible Light
Length of Day
Tomorrow will be .
, % of the Moon is Illuminated

Today's Extremes

State Highs State Lows

Community

WunderPhotos

Upload Photos

1,962,540 photos uploaded!

WunderBlog® & News

Nearby

Air Quality

  Air Quality AQ Index Pollutant
Not available.

Snow Depth

Station Depth Elevation

Earthquake Activity

City Distance Mag. Time & Date
Minimum magnitude displayed is 2.5.

Earthquake Activity

City Distance Mag. Time & Date
Minimum magnitude displayed is 2.5.

Coastal Water Temperatures

Place Temperature

Stations

Nearby Weather Stations

Station Location Temp. Windchill Dew Point Humidity Wind Precip. Elev Updated Type
                   

Watches & Warnings

Severe Thunderstorm Watch
Issued: 1:24 AM CDT Mar. 25, 2017 – National Weather Service

Severe Thunderstorm Watch 84 remains in effect until 600 am CDT

MS
. Mississippi counties included are

Adams Bolivar Claiborne
Humphreys Issaquena Jefferson
Leflore Sharkey Sunflower
Warren Washington